ENOV/HOV METAR and TAF weather

Enter ICAO airport designator
Station Type Date Time Source
ENOV METAR 2018/07/21 13:20 UTC NOAA

ENOV 211320Z VRB06KT 9999 FEW060 20/11 Q1009 RMK WIND 2175FT 26009KT


Station Type Date Time Source
ENOV Decoded METAR 2018/07/21 13:20 UTC NOAA

Orsta-Volda / Hovden, Norway (ENOV) 62-11N 006-04E 74M
Jul 21, 2018 - 09:20 AM EDT / 2018.07.21 1320 UTC
Wind: Variable at 7 MPH (6 KT):0
Visibility: greater than 7 mile(s):0
Sky conditions: mostly clear
Temperature: 68 F (20 C)
Dew Point: 51 F (11 C)
Relative Humidity: 56%
Pressure (altimeter): 29.80 in. Hg (1009 hPa)
ob: ENOV 211320Z VRB06KT 9999 FEW060 20/11 Q1009 RMK WIND 2175FT 26009KT
cycle: 13

Station Type Date Time Source
ENOV TAF UTC NOAA

Error!


Example: see airport list